Time;durP1;ratioP1;P1;durP2;ratioP2;P2;SDS_P1;SDS_P2;PMS_P1;PMS_P2;Temp;Humidity;BMP_temperature;BMP_pressure;BME280_temperature;BME280_humidity;BME280_pressure;Samples;Min_cycle;Max_cycle;Signal;HPM_P1;HPM_P2
2023/01/17 00:00:57;;;;;;;;;;;;;;;4.19;64.28;95042.63;5027632;28;19933;-76
2023/01/17 00:03:27;;;;;;;;;;;;;;;4.17;63.50;95042.19;5019213;28;20035;-76
2023/01/17 00:12:00;;;;;;;;;;;;;;;4.09;63.28;95047.69;5030251;28;20061;-77
2023/01/17 00:14:29;;;;;;;;;;;;;;;3.93;64.11;95051.06;5035844;28;19929;-77
2023/01/17 01:34:03;;;;;;;;;;;;;;;3.34;63.56;95148.16;5033915;28;19975;-76
2023/01/17 01:36:30;;;;;;;;;;;;;;;3.27;63.58;95153.28;5027915;28;20412;-76
2023/01/17 01:38:58;;;;;;;;;;;;;;;3.28;63.98;95148.69;5025210;28;20388;-76
2023/01/17 01:41:26;;;;;;;;;;;;;;;3.20;64.75;95149.59;5038596;28;19936;-76
2023/01/17 01:43:55;;;;;;;;;;;;;;;3.35;64.01;95146.25;5013872;28;20320;-76
2023/01/17 01:46:25;;;;;;;;;;;;;;;3.37;63.77;95144.03;5022070;28;19929;-78
2023/01/17 01:48:54;;;;;;;;;;;;;;;3.34;63.61;95139.31;5026336;28;20285;-77
2023/01/17 01:51:24;;;;;;;;;;;;;;;3.30;64.20;95143.78;5023234;28;19948;-77
2023/01/17 01:53:52;;;;;;;;;;;;;;;3.35;64.09;95157.75;5025092;28;19925;-77
2023/01/17 01:56:22;;;;;;;;;;;;;;;3.49;64.16;95154.00;5034314;28;19933;-78
2023/01/17 01:58:51;;;;;;;;;;;;;;;3.51;64.13;95157.91;5034425;28;19925;-77
2023/01/17 02:01:19;;;;;;;;;;;;;;;3.59;64.07;95151.66;5034815;28;19929;-78
2023/01/17 02:06:41;;;;;;;;;;;;;;;3.44;64.92;95160.38;5029618;28;19925;-78
2023/01/17 02:09:10;;;;;;;;;;;;;;;3.52;64.60;95169.47;5033515;28;19933;-78
2023/01/17 02:11:38;;;;;;;;;;;;;;;3.58;64.10;95168.91;5027668;28;19929;-78
2023/01/17 02:14:08;;;;;;;;;;;;;;;3.36;65.32;95164.72;5033226;28;20381;-78
2023/01/17 02:16:43;;;;;;;;;;;;;;;3.48;65.15;95155.91;5029294;28;20384;-78
2023/01/17 02:19:20;;;;;;;;;;;;;;;3.40;65.12;95162.13;5029045;28;19925;-78
2023/01/17 02:21:49;;;;;;;;;;;;;;;3.31;65.08;95169.53;5028357;28;19932;-76
2023/01/17 02:24:25;;;;;;;;;;;;;;;3.25;66.11;95168.13;5033968;28;19929;-77
2023/01/17 02:30:07;;;;;;;;;;;;;;;3.19;65.42;95180.19;5024101;28;19940;-77
2023/01/17 02:32:48;;;;;;;;;;;;;;;3.14;65.77;95179.31;5013445;28;19925;-76
2023/01/17 02:38:21;;;;;;;;;;;;;;;3.11;65.51;95179.19;5031882;28;19926;-78
2023/01/17 02:40:49;;;;;;;;;;;;;;;3.27;64.04;95179.34;5027447;28;20278;-77
2023/01/17 02:46:10;;;;;;;;;;;;;;;3.31;63.49;95177.56;5030462;28;19932;-76
2023/01/17 02:48:39;;;;;;;;;;;;;;;3.33;63.11;95172.63;5025137;28;19925;-76
2023/01/17 02:51:21;;;;;;;;;;;;;;;3.32;62.97;95179.91;5024207;28;19936;-76
2023/01/17 02:53:53;;;;;;;;;;;;;;;3.20;64.04;95182.56;5021601;28;20021;-76
2023/01/17 02:56:24;;;;;;;;;;;;;;;3.32;62.82;95176.44;5023647;28;20309;-75
2023/01/17 02:58:58;;;;;;;;;;;;;;;3.26;63.20;95186.59;5026659;28;19925;-76
2023/01/17 03:01:26;;;;;;;;;;;;;;;3.29;62.46;95185.94;5033288;28;19979;-76
2023/01/17 03:04:20;;;;;;;;;;;;;;;3.27;61.35;95176.66;5017674;28;19925;-76
2023/01/17 03:06:50;;;;;;;;;;;;;;;3.20;61.73;95177.19;5009342;28;19971;-76
2023/01/17 03:09:19;;;;;;;;;;;;;;;3.17;61.77;95182.44;5012947;28;19948;-76
2023/01/17 03:11:46;;;;;;;;;;;;;;;3.08;61.63;95185.97;5012593;28;20288;-76
2023/01/17 03:14:14;;;;;;;;;;;;;;;3.14;61.86;95195.41;5012628;28;19982;-76
2023/01/17 03:16:42;;;;;;;;;;;;;;;3.02;61.47;95187.28;5012153;28;20464;-74
2023/01/17 03:19:13;;;;;;;;;;;;;;;2.87;61.37;95193.25;5009725;28;19926;-74
2023/01/17 03:21:41;;;;;;;;;;;;;;;2.77;61.73;95196.31;5012936;28;20369;-76
2023/01/17 03:24:10;;;;;;;;;;;;;;;2.84;61.94;95201.97;5015273;28;19987;-76
2023/01/17 03:26:39;;;;;;;;;;;;;;;2.78;60.97;95208.63;5012733;28;19925;-74
2023/01/17 03:29:07;;;;;;;;;;;;;;;2.71;61.01;95214.50;5015824;28;19932;-74
2023/01/17 03:31:35;;;;;;;;;;;;;;;2.71;60.70;95208.34;5013936;28;19926;-74
2023/01/17 03:34:03;;;;;;;;;;;;;;;2.63;61.08;95208.09;5015695;28;19932;-74
2023/01/17 03:36:31;;;;;;;;;;;;;;;2.63;60.77;95218.03;5016624;28;19925;-75
2023/01/17 03:41:55;;;;;;;;;;;;;;;2.64;61.09;95230.31;5016840;28;19980;-77
2023/01/17 03:44:24;;;;;;;;;;;;;;;2.46;61.39;95221.63;5016026;28;19926;-77
2023/01/17 03:46:51;;;;;;;;;;;;;;;2.47;61.45;95217.81;5023757;28;20440;-77
2023/01/17 03:49:19;;;;;;;;;;;;;;;2.43;62.04;95224.94;5031007;28;19925;-77
2023/01/17 03:51:47;;;;;;;;;;;;;;;2.55;60.70;95222.34;5016685;28;20439;-76
2023/01/17 03:54:16;;;;;;;;;;;;;;;2.45;61.19;95225.41;5015978;28;19925;-76
2023/01/17 03:56:44;;;;;;;;;;;;;;;2.37;61.46;95234.28;5012699;28;20017;-77
2023/01/17 03:59:15;;;;;;;;;;;;;;;2.50;61.52;95235.13;5015078;28;19934;-76
2023/01/17 04:01:43;;;;;;;;;;;;;;;2.38;61.41;95240.41;5019539;28;20044;-77
2023/01/17 04:04:11;;;;;;;;;;;;;;;2.32;61.49;95242.50;5015774;28;19933;-77
2023/01/17 04:06:40;;;;;;;;;;;;;;;2.25;61.71;95239.56;5016178;28;20391;-76
2023/01/17 04:09:07;;;;;;;;;;;;;;;2.17;62.91;95232.34;5032140;28;19929;-76
2023/01/17 04:11:36;;;;;;;;;;;;;;;2.15;62.27;95232.66;5014778;28;20388;-76
2023/01/17 04:14:04;;;;;;;;;;;;;;;2.30;62.09;95239.38;5035243;28;19929;-76
2023/01/17 04:16:33;;;;;;;;;;;;;;;2.34;62.01;95242.94;5021497;28;19931;-76
2023/01/17 04:19:01;;;;;;;;;;;;;;;2.39;61.42;95240.09;5035041;28;19947;-76
2023/01/17 04:21:29;;;;;;;;;;;;;;;2.31;62.03;95241.72;5032144;28;19930;-76
2023/01/17 04:24:00;;;;;;;;;;;;;;;2.38;62.01;95243.09;5018296;28;19925;-76
2023/01/17 04:26:28;;;;;;;;;;;;;;;2.22;61.95;95245.53;5029058;28;19931;-76
2023/01/17 04:28:56;;;;;;;;;;;;;;;2.15;62.83;95243.38;5035467;28;20393;-76
2023/01/17 04:31:24;;;;;;;;;;;;;;;2.26;62.73;95241.13;5029407;28;19967;-75
2023/01/17 04:33:53;;;;;;;;;;;;;;;2.18;62.89;95236.56;5034345;28;19932;-76
2023/01/17 04:36:22;;;;;;;;;;;;;;;2.07;62.95;95238.81;5030093;28;19940;-76
2023/01/17 04:38:50;;;;;;;;;;;;;;;2.09;62.84;95252.69;5031574;28;19925;-76
2023/01/17 04:41:18;;;;;;;;;;;;;;;2.09;63.05;95256.16;5018663;28;19926;-76
2023/01/17 04:43:46;;;;;;;;;;;;;;;2.02;63.30;95252.41;5030855;28;20019;-76
2023/01/17 04:46:14;;;;;;;;;;;;;;;2.03;63.26;95256.66;5024934;28;19925;-74
2023/01/17 04:49:07;;;;;;;;;;;;;;;1.96;63.61;95254.47;5024852;28;19925;-74
2023/01/17 04:51:37;;;;;;;;;;;;;;;1.85;63.72;95258.59;5034417;28;19925;-76
2023/01/17 04:54:05;;;;;;;;;;;;;;;1.82;64.21;95259.25;5032367;28;19991;-76
2023/01/17 04:56:35;;;;;;;;;;;;;;;1.86;64.09;95270.09;5032302;28;20004;-76
2023/01/17 04:59:03;;;;;;;;;;;;;;;1.93;64.02;95286.47;5030298;28;20327;-76
2023/01/17 05:01:31;;;;;;;;;;;;;;;1.96;63.94;95280.47;5032530;28;19929;-76
2023/01/17 05:03:59;;;;;;;;;;;;;;;2.03;64.36;95275.41;5024082;28;19929;-75
2023/01/17 05:07:18;;;;;;;;;;;;;;;2.08;63.23;95276.03;5028492;28;19935;-76
2023/01/17 05:09:46;;;;;;;;;;;;;;;2.00;63.55;95287.53;5025926;28;20308;-76
2023/01/17 05:12:14;;;;;;;;;;;;;;;2.11;62.82;95282.63;5028976;28;20399;-74
2023/01/17 05:14:41;;;;;;;;;;;;;;;2.00;63.63;95295.56;5032951;28;19925;-74
2023/01/17 05:17:10;;;;;;;;;;;;;;;2.19;62.89;95289.84;5034476;28;19932;-78
2023/01/17 05:19:38;;;;;;;;;;;;;;;2.10;62.78;95281.81;5023416;28;19925;-78
2023/01/17 05:22:13;;;;;;;;;;;;;;;2.12;63.64;95289.53;5033469;28;19964;-77
2023/01/17 05:24:44;;;;;;;;;;;;;;;2.19;62.81;95283.69;5032017;28;19957;-77
2023/01/17 05:27:12;;;;;;;;;;;;;;;1.95;64.00;95300.31;5045871;28;19932;-75
2023/01/17 05:30:28;;;;;;;;;;;;;;;2.09;63.39;95284.84;5032289;28;19936;-74
2023/01/17 05:32:58;;;;;;;;;;;;;;;2.14;63.57;95281.19;5029497;28;19936;-75
2023/01/17 05:35:35;;;;;;;;;;;;;;;1.97;64.07;95292.72;5031810;28;19960;-77
2023/01/17 05:38:03;;;;;;;;;;;;;;;2.14;63.43;95291.91;5031066;28;20388;-77
2023/01/17 05:40:33;;;;;;;;;;;;;;;2.11;64.22;95296.00;5032368;28;19933;-77
2023/01/17 05:43:01;;;;;;;;;;;;;;;2.03;63.76;95299.50;5031454;28;19929;-76
2023/01/17 05:45:30;;;;;;;;;;;;;;;2.22;62.98;95299.13;5019969;28;19964;-76
2023/01/17 05:47:58;;;;;;;;;;;;;;;2.19;63.79;95294.41;5026594;28;19932;-76
2023/01/17 05:50:27;;;;;;;;;;;;;;;2.28;63.29;95300.50;5031614;28;19925;-74
2023/01/17 05:52:55;;;;;;;;;;;;;;;2.31;63.14;95297.19;5022213;28;19925;-73
2023/01/17 05:55:24;;;;;;;;;;;;;;;2.34;63.19;95296.53;5027134;28;19929;-76
2023/01/17 05:57:54;;;;;;;;;;;;;;;2.34;63.25;95301.88;5030706;28;19933;-76
2023/01/17 06:00:22;;;;;;;;;;;;;;;2.34;62.92;95308.06;5023179;28;19980;-76
2023/01/17 06:02:55;;;;;;;;;;;;;;;2.38;63.31;95310.09;5029815;28;20016;-71
2023/01/17 06:05:28;;;;;;;;;;;;;;;2.46;62.54;95306.59;5023525;28;19925;-72
2023/01/17 06:07:57;;;;;;;;;;;;;;;2.36;63.25;95302.38;5030904;28;19955;-71
2023/01/17 06:10:25;;;;;;;;;;;;;;;2.44;62.93;95306.09;5027801;28;19925;-72
2023/01/17 06:13:01;;;;;;;;;;;;;;;2.43;63.40;95305.31;5028175;28;19926;-76
2023/01/17 06:15:30;;;;;;;;;;;;;;;2.47;63.75;95313.53;5021531;28;20351;-71
2023/01/17 06:17:58;;;;;;;;;;;;;;;2.55;63.01;95304.63;5014961;28;19932;-71
2023/01/17 06:20:27;;;;;;;;;;;;;;;2.62;62.45;95307.63;5022277;28;19925;-76
2023/01/17 06:22:55;;;;;;;;;;;;;;;2.60;62.92;95304.44;5022406;28;19933;-75
2023/01/17 06:25:23;;;;;;;;;;;;;;;2.61;63.15;95320.22;5030625;28;19925;-74
2023/01/17 06:27:53;;;;;;;;;;;;;;;2.63;62.40;95318.00;5030144;28;19932;-74
2023/01/17 06:30:23;;;;;;;;;;;;;;;2.77;62.34;95319.66;5033364;28;19971;-75
2023/01/17 06:32:54;;;;;;;;;;;;;;;2.70;62.56;95324.75;5028528;28;19931;-74
2023/01/17 06:38:14;;;;;;;;;;;;;;;2.73;62.66;95330.25;5034988;28;19932;-76
2023/01/17 06:40:42;;;;;;;;;;;;;;;2.85;62.55;95333.00;5022531;28;19932;-71
2023/01/17 06:43:13;;;;;;;;;;;;;;;2.57;63.69;95326.56;5027664;28;19926;-71
2023/01/17 06:46:08;;;;;;;;;;;;;;;2.46;64.43;95334.16;5032174;28;19933;-71
2023/01/17 06:48:36;;;;;;;;;;;;;;;2.34;65.51;95329.50;5031174;28;20312;-71
2023/01/17 06:51:03;;;;;;;;;;;;;;;2.37;64.87;95317.34;5031265;28;19925;-71
2023/01/17 06:53:33;;;;;;;;;;;;;;;2.36;64.29;95318.44;5029752;28;19932;-74
2023/01/17 06:56:01;;;;;;;;;;;;;;;2.38;64.46;95318.91;5028763;28;19925;-72
2023/01/17 06:58:31;;;;;;;;;;;;;;;2.35;64.72;95316.88;5013762;28;19929;-72
2023/01/17 07:00:58;;;;;;;;;;;;;;;2.28;64.73;95316.56;5029982;28;19933;-73
2023/01/17 07:03:28;;;;;;;;;;;;;;;2.28;64.32;95327.28;5030664;28;20280;-72
2023/01/17 07:05:56;;;;;;;;;;;;;;;2.15;65.17;95330.97;5026870;28;20011;-73
2023/01/17 07:08:25;;;;;;;;;;;;;;;2.23;64.63;95341.66;5033671;28;19926;-74
2023/01/17 07:10:57;;;;;;;;;;;;;;;2.10;65.34;95337.28;5018097;28;19956;-77
2023/01/17 07:13:25;;;;;;;;;;;;;;;2.06;65.62;95344.38;5035782;28;19929;-75
2023/01/17 07:15:56;;;;;;;;;;;;;;;2.03;65.54;95343.16;5020935;28;19932;-75
2023/01/17 07:18:29;;;;;;;;;;;;;;;2.04;65.71;95339.34;5030415;28;19925;-75
2023/01/17 07:20:56;;;;;;;;;;;;;;;2.14;66.19;95351.63;5032410;28;19967;-76
2023/01/17 07:23:24;;;;;;;;;;;;;;;2.24;65.42;95339.78;5036038;28;19925;-76
2023/01/17 07:25:52;;;;;;;;;;;;;;;2.25;65.09;95341.34;5042199;28;19925;-73
2023/01/17 07:28:20;;;;;;;;;;;;;;;2.28;65.14;95338.78;5033457;28;19983;-73
2023/01/17 07:30:49;;;;;;;;;;;;;;;2.38;63.74;95334.19;5029225;28;20282;-73
2023/01/17 07:33:16;;;;;;;;;;;;;;;2.24;64.38;95347.81;5033458;28;19926;-73
2023/01/17 07:35:46;;;;;;;;;;;;;;;2.08;65.00;95337.63;5030220;28;20380;-76
2023/01/17 07:38:18;;;;;;;;;;;;;;;2.08;64.79;95342.97;5025331;28;19926;-76
2023/01/17 07:43:38;;;;;;;;;;;;;;;2.06;65.80;95334.44;5030822;28;19933;-72
2023/01/17 07:46:07;;;;;;;;;;;;;;;2.00;65.76;95337.63;5018582;28;19933;-72
2023/01/17 07:48:35;;;;;;;;;;;;;;;2.09;66.27;95341.06;5029235;28;19925;-72
2023/01/17 07:51:04;;;;;;;;;;;;;;;2.18;65.79;95341.03;5033242;28;19925;-76
2023/01/17 07:53:33;;;;;;;;;;;;;;;2.18;65.50;95333.00;5035767;28;19933;-76
2023/01/17 07:56:02;;;;;;;;;;;;;;;2.20;66.07;95331.59;5031225;28;19996;-76
2023/01/17 07:58:30;;;;;;;;;;;;;;;2.04;66.53;95325.97;5032949;28;19930;-75
2023/01/17 08:01:01;;;;;;;;;;;;;;;2.03;66.53;95327.06;5034769;28;19934;-76
2023/01/17 08:03:31;;;;;;;;;;;;;;;2.06;66.46;95326.41;5035039;28;19968;-76
2023/01/17 08:06:00;;;;;;;;;;;;;;;1.95;67.05;95319.84;5034291;28;19929;-71
2023/01/17 08:08:29;;;;;;;;;;;;;;;2.01;67.19;95315.09;5035132;28;19932;-71
2023/01/17 08:10:59;;;;;;;;;;;;;;;2.04;67.06;95315.25;5025653;28;19925;-71
2023/01/17 08:13:27;;;;;;;;;;;;;;;2.03;67.29;95319.03;5030937;28;20365;-71
2023/01/17 08:15:56;;;;;;;;;;;;;;;2.05;67.08;95316.81;5016266;28;19932;-72
2023/01/17 08:18:24;;;;;;;;;;;;;;;2.09;67.01;95309.72;5032956;28;19925;-72
2023/01/17 08:20:53;;;;;;;;;;;;;;;2.16;66.93;95305.75;5035278;28;19925;-71
2023/01/17 08:23:21;;;;;;;;;;;;;;;2.19;66.74;95305.91;5034578;28;19972;-71
2023/01/17 08:25:50;;;;;;;;;;;;;;;2.22;66.89;95315.19;5035967;28;19948;-71
2023/01/17 08:28:18;;;;;;;;;;;;;;;2.27;65.94;95315.00;5029006;28;19932;-71
2023/01/17 08:30:46;;;;;;;;;;;;;;;2.30;65.87;95309.81;5035151;28;19925;-71
2023/01/17 08:33:14;;;;;;;;;;;;;;;2.24;66.18;95303.06;5014177;28;20043;-71
2023/01/17 08:35:50;;;;;;;;;;;;;;;2.42;65.70;95302.97;5035214;28;19978;-75
2023/01/17 08:38:22;;;;;;;;;;;;;;;2.41;65.46;95302.19;5035102;28;20328;-78
2023/01/17 08:40:51;;;;;;;;;;;;;;;2.43;65.52;95299.19;5020928;28;19925;-76
2023/01/17 08:43:20;;;;;;;;;;;;;;;2.50;65.70;95305.59;5035950;28;19932;-75
2023/01/17 08:45:48;;;;;;;;;;;;;;;2.45;65.35;95307.69;5020406;28;20360;-74
2023/01/17 08:48:17;;;;;;;;;;;;;;;2.58;64.29;95312.03;5031392;28;19932;-72
2023/01/17 08:53:37;;;;;;;;;;;;;;;2.96;62.40;95305.81;5023970;28;19940;-72
2023/01/17 08:56:07;;;;;;;;;;;;;;;2.90;61.30;95302.53;5030072;28;19932;-74
2023/01/17 09:01:27;;;;;;;;;;;;;;;2.73;61.58;95318.75;5017053;28;20411;-74
2023/01/17 09:04:20;;;;;;;;;;;;;;;2.68;61.05;95310.88;5029945;28;19933;-74
2023/01/17 09:06:49;;;;;;;;;;;;;;;2.80;60.89;95316.34;5027866;28;20376;-74
2023/01/17 09:09:17;;;;;;;;;;;;;;;2.76;60.85;95308.16;5029677;28;20412;-74
2023/01/17 09:11:46;;;;;;;;;;;;;;;2.85;60.30;95321.50;5027093;28;19925;-74
2023/01/17 09:14:15;;;;;;;;;;;;;;;2.99;60.18;95316.69;5012714;28;19932;-74
2023/01/17 09:16:44;;;;;;;;;;;;;;;2.97;59.86;95313.53;5033285;28;19964;-74
2023/01/17 09:19:12;;;;;;;;;;;;;;;3.07;59.07;95315.06;5041854;28;20011;-78
2023/01/17 09:21:40;;;;;;;;;;;;;;;2.92;59.30;95315.63;5018450;28;19948;-73
2023/01/17 09:24:08;;;;;;;;;;;;;;;2.69;59.19;95315.91;5031878;28;19933;-73
2023/01/17 09:26:36;;;;;;;;;;;;;;;2.60;59.88;95312.50;5019090;28;19925;-73
2023/01/17 09:29:06;;;;;;;;;;;;;;;2.62;61.35;95319.13;5036401;28;19967;-76
2023/01/17 09:31:34;;;;;;;;;;;;;;;2.84;60.83;95307.31;5030732;28;19936;-77
2023/01/17 09:34:03;;;;;;;;;;;;;;;2.80;60.24;95302.94;5028040;28;19948;-76
2023/01/17 09:36:33;;;;;;;;;;;;;;;2.85;58.99;95305.41;5030030;28;19924;-74
2023/01/17 09:39:01;;;;;;;;;;;;;;;2.99;59.54;95305.97;5032150;28;20361;-75
2023/01/17 09:41:30;;;;;;;;;;;;;;;2.97;58.78;95310.84;5030970;28;19925;-73
2023/01/17 09:44:03;;;;;;;;;;;;;;;2.97;58.26;95312.75;5030745;28;19933;-74
2023/01/17 09:46:33;;;;;;;;;;;;;;;2.92;58.69;95304.91;5032621;28;19937;-79
2023/01/17 09:49:33;;;;;;;;;;;;;;;2.85;58.25;95308.09;5012326;28;19933;-74
2023/01/17 09:52:01;;;;;;;;;;;;;;;2.88;58.02;95300.19;5026373;28;19932;-73
2023/01/17 09:54:33;;;;;;;;;;;;;;;2.99;58.04;95305.19;5021244;28;19935;-73
2023/01/17 09:57:04;;;;;;;;;;;;;;;3.20;58.49;95314.03;5029006;28;19929;-73
2023/01/17 09:59:35;;;;;;;;;;;;;;;3.17;58.93;95316.56;5032783;28;19940;-74
2023/01/17 10:05:06;;;;;;;;;;;;;;;3.37;57.22;95316.56;5019274;28;19925;-73
2023/01/17 10:07:37;;;;;;;;;;;;;;;3.47;55.51;95315.38;5027799;28;19933;-73
2023/01/17 10:10:12;;;;;;;;;;;;;;;3.50;54.38;95300.50;5025572;28;20376;-73
2023/01/17 10:12:43;;;;;;;;;;;;;;;3.47;55.65;95299.28;5030006;28;19925;-73
2023/01/17 10:15:32;;;;;;;;;;;;;;;3.53;55.19;95295.28;5027470;28;19929;-73
2023/01/17 10:18:02;;;;;;;;;;;;;;;3.47;55.53;95291.22;5019197;28;19925;-73
2023/01/17 10:20:44;;;;;;;;;;;;;;;3.52;56.03;95285.66;5029769;28;19932;-74
2023/01/17 10:23:25;;;;;;;;;;;;;;;3.87;54.95;95286.09;5009569;28;20340;-74
2023/01/17 10:25:53;;;;;;;;;;;;;;;4.00;55.65;95278.88;5031497;28;19933;-71
2023/01/17 10:28:22;;;;;;;;;;;;;;;4.10;53.87;95286.50;5030975;28;19925;-71
2023/01/17 10:30:51;;;;;;;;;;;;;;;4.37;54.70;95277.00;5014889;28;19925;-76
2023/01/17 10:33:21;;;;;;;;;;;;;;;4.70;51.72;95279.56;5032275;28;19929;-77
2023/01/17 10:35:56;;;;;;;;;;;;;;;4.74;52.13;95285.06;5012215;28;19929;-77
2023/01/17 10:38:32;;;;;;;;;;;;;;;4.84;51.01;95278.41;5034629;28;19963;-78
2023/01/17 10:41:04;;;;;;;;;;;;;;;4.75;50.43;95269.72;5031679;28;19937;-77
2023/01/17 10:43:39;;;;;;;;;;;;;;;4.65;51.48;95263.66;5034227;28;19979;-76
2023/01/17 10:46:09;;;;;;;;;;;;;;;4.73;51.35;95256.56;5034146;28;19925;-76
2023/01/17 10:48:41;;;;;;;;;;;;;;;4.63;51.98;95255.13;5037843;28;19925;-81
2023/01/17 10:51:14;;;;;;;;;;;;;;;4.73;49.21;95257.34;5116151;22;19937;-77
2023/01/17 10:53:45;;;;;;;;;;;;;;;4.91;49.21;95259.81;5045674;28;19925;-74
2023/01/17 10:56:40;;;;;;;;;;;;;;;4.99;48.99;95254.28;5048785;28;19979;-77
2023/01/17 10:59:14;;;;;;;;;;;;;;;5.00;49.06;95250.47;5028146;28;20330;-73
2023/01/17 11:01:42;;;;;;;;;;;;;;;4.71;47.35;95248.06;5049205;28;19925;-72
2023/01/17 11:04:15;;;;;;;;;;;;;;;4.65;49.49;95246.75;5046941;28;19925;-71
2023/01/17 11:06:46;;;;;;;;;;;;;;;4.54;49.64;95241.03;5047376;28;20398;-70
2023/01/17 11:09:28;;;;;;;;;;;;;;;4.47;50.90;95243.50;5052087;28;19925;-72
2023/01/17 11:11:55;;;;;;;;;;;;;;;4.42;50.86;95241.03;5047661;28;20392;-75
2023/01/17 11:14:49;;;;;;;;;;;;;;;4.60;51.30;95231.63;5026015;28;19925;-75
2023/01/17 11:17:18;;;;;;;;;;;;;;;4.54;51.44;95224.91;5054371;28;19925;-76
2023/01/17 11:19:50;;;;;;;;;;;;;;;4.57;51.78;95221.53;5029779;28;19933;-74
2023/01/17 11:22:17;;;;;;;;;;;;;;;4.67;51.22;95222.97;5052311;28;19982;-75
2023/01/17 11:24:50;;;;;;;;;;;;;;;4.58;50.02;95217.75;5047314;28;20311;-75
2023/01/17 11:30:59;;;;;;;;;;;;;;;4.68;50.74;95211.88;5045869;28;19932;-73
2023/01/17 11:33:43;;;;;;;;;;;;;;;4.72;50.32;95207.38;5047126;28;19925;-71
2023/01/17 11:36:17;;;;;;;;;;;;;;;4.81;49.12;95198.41;5052784;28;19944;-71
2023/01/17 11:39:01;;;;;;;;;;;;;;;4.86;50.07;95195.50;5031672;28;19932;-70
2023/01/17 11:41:53;;;;;;;;;;;;;;;4.98;48.94;95176.63;5042248;28;19926;-76
2023/01/17 11:44:22;;;;;;;;;;;;;;;5.09;47.86;95166.16;5052706;28;19924;-75
2023/01/17 11:47:02;;;;;;;;;;;;;;;4.99;48.75;95168.19;5023221;28;19932;-76
2023/01/17 11:49:54;;;;;;;;;;;;;;;5.13;46.40;95165.13;5063185;28;19929;-75
2023/01/17 11:55:21;;;;;;;;;;;;;;;4.96;46.93;95168.13;5063382;28;19936;-75
2023/01/17 11:57:49;;;;;;;;;;;;;;;5.12;48.54;95163.56;5059472;28;20019;-75
2023/01/17 12:00:20;;;;;;;;;;;;;;;5.25;46.03;95159.69;5054440;28;19925;-71
2023/01/17 12:02:58;;;;;;;;;;;;;;;5.19;47.41;95163.75;5053931;28;19925;-71
2023/01/17 12:05:39;;;;;;;;;;;;;;;5.28;47.41;95157.44;5055973;28;19925;-76
2023/01/17 12:08:13;;;;;;;;;;;;;;;5.55;45.20;95156.63;5049177;28;19925;-76
2023/01/17 12:10:44;;;;;;;;;;;;;;;5.74;46.05;95154.00;5051166;28;19932;-77
2023/01/17 12:18:49;;;;;;;;;;;;;;;6.15;43.58;95151.16;5060496;28;19925;-75
2023/01/17 12:21:17;;;;;;;;;;;;;;;6.29;42.16;95149.59;5042313;28;20353;-71
2023/01/17 12:23:54;;;;;;;;;;;;;;;6.22;42.91;95157.50;5060655;28;19931;-72
2023/01/17 12:26:49;;;;;;;;;;;;;;;5.98;43.29;95157.69;5051098;28;19976;-72
2023/01/17 12:29:25;;;;;;;;;;;;;;;5.97;42.14;95158.84;5054527;28;20574;-71
2023/01/17 12:31:56;;;;;;;;;;;;;;;6.17;42.65;95156.97;5037636;28;19925;-76
2023/01/17 12:34:24;;;;;;;;;;;;;;;6.10;42.01;95154.91;5038869;28;19952;-77
2023/01/17 12:36:55;;;;;;;;;;;;;;;6.09;42.34;95152.56;5060178;28;19925;-77
2023/01/17 12:39:27;;;;;;;;;;;;;;;5.87;41.23;95145.84;5038525;28;20368;-77
2023/01/17 12:41:59;;;;;;;;;;;;;;;5.72;41.13;95134.72;5050084;28;19933;-77
2023/01/17 12:44:35;;;;;;;;;;;;;;;5.51;41.32;95131.50;5034746;28;19932;-76
2023/01/17 12:47:03;;;;;;;;;;;;;;;5.45;42.80;95140.97;5055690;28;19928;-72
2023/01/17 12:49:34;;;;;;;;;;;;;;;5.22;42.20;95136.16;5030948;28;19959;-71
2023/01/17 12:52:06;;;;;;;;;;;;;;;5.05;42.43;95123.00;5052396;28;20023;-72
2023/01/17 12:54:36;;;;;;;;;;;;;;;5.03;42.70;95124.47;5037611;28;20027;-72
2023/01/17 12:57:05;;;;;;;;;;;;;;;4.98;42.17;95120.13;5030329;28;20019;-76
2023/01/17 12:59:35;;;;;;;;;;;;;;;4.94;43.03;95114.63;5060612;28;20388;-76
2023/01/17 13:02:04;;;;;;;;;;;;;;;5.11;43.90;95116.22;5057358;28;19925;-77
2023/01/17 13:07:29;;;;;;;;;;;;;;;5.24;44.06;95120.44;5051714;28;19979;-71
2023/01/17 13:10:00;;;;;;;;;;;;;;;5.15;45.57;95122.50;5042978;28;19940;-71
2023/01/17 13:12:29;;;;;;;;;;;;;;;5.23;46.70;95131.56;5037552;28;19928;-77
2023/01/17 13:14:57;;;;;;;;;;;;;;;5.16;45.74;95124.06;5054320;28;20011;-77
2023/01/17 13:17:27;;;;;;;;;;;;;;;5.16;43.25;95129.44;5056499;28;19924;-77
2023/01/17 13:19:57;;;;;;;;;;;;;;;5.11;44.78;95121.59;5054831;28;20376;-78
2023/01/17 13:22:26;;;;;;;;;;;;;;;5.13;44.30;95113.22;5054500;28;19932;-74
2023/01/17 13:24:55;;;;;;;;;;;;;;;5.20;42.03;95114.16;5053723;28;19924;-72
2023/01/17 13:27:55;;;;;;;;;;;;;;;5.09;44.74;95106.94;5044512;28;20425;-72
2023/01/17 13:30:30;;;;;;;;;;;;;;;4.95;43.30;95107.34;5053993;28;19948;-73
2023/01/17 13:33:01;;;;;;;;;;;;;;;5.00;45.46;95109.78;5050407;28;19925;-73
2023/01/17 13:35:35;;;;;;;;;;;;;;;4.99;42.18;95105.53;5042669;28;20273;-72
2023/01/17 13:38:08;;;;;;;;;;;;;;;4.89;42.95;95097.94;5048911;28;19924;-71
2023/01/17 13:40:39;;;;;;;;;;;;;;;4.96;44.16;95098.16;5049384;28;19925;-71
2023/01/17 13:43:12;;;;;;;;;;;;;;;4.88;43.71;95094.47;5048021;28;19990;-72
2023/01/17 13:45:40;;;;;;;;;;;;;;;4.84;46.11;95090.91;5029628;28;20018;-72
2023/01/17 13:48:24;;;;;;;;;;;;;;;4.89;44.66;95082.59;5031084;28;20400;-72
2023/01/17 13:51:18;;;;;;;;;;;;;;;4.96;45.24;95082.81;5046797;28;19979;-74
2023/01/17 13:53:47;;;;;;;;;;;;;;;4.98;43.86;95085.91;5047632;28;19993;-74
2023/01/17 13:56:24;;;;;;;;;;;;;;;4.94;42.94;95092.31;5030910;28;19937;-76
2023/01/17 13:58:57;;;;;;;;;;;;;;;4.86;42.90;95079.81;5048591;28;19955;-76
2023/01/17 14:01:44;;;;;;;;;;;;;;;4.70;44.03;95072.50;5028967;28;19932;-72
2023/01/17 14:04:15;;;;;;;;;;;;;;;4.77;43.47;95071.13;5045768;28;19972;-73
2023/01/17 14:06:44;;;;;;;;;;;;;;;4.67;43.07;95070.47;5051200;28;19924;-73
2023/01/17 14:09:14;;;;;;;;;;;;;;;4.62;43.67;95069.94;5034740;28;19925;-78
2023/01/17 14:11:52;;;;;;;;;;;;;;;4.45;44.39;95062.94;5066829;28;19947;-77
2023/01/17 14:14:39;;;;;;;;;;;;;;;4.50;43.87;95057.31;5051226;28;19925;-77
2023/01/17 14:17:26;;;;;;;;;;;;;;;4.52;43.69;95047.00;5041267;28;19925;-76
2023/01/17 14:19:59;;;;;;;;;;;;;;;4.39;43.89;95048.97;5040655;28;19925;-76
2023/01/17 14:22:28;;;;;;;;;;;;;;;4.42;42.93;95042.09;5044035;28;19971;-71
2023/01/17 14:27:52;;;;;;;;;;;;;;;4.44;44.15;95037.19;5053108;28;19928;-72
2023/01/17 14:30:21;;;;;;;;;;;;;;;4.50;43.87;95032.34;5049379;28;19925;-71
2023/01/17 14:33:04;;;;;;;;;;;;;;;4.47;44.71;95028.44;5034331;28;19933;-71
2023/01/17 14:35:58;;;;;;;;;;;;;;;4.29;44.48;95025.25;5050258;28;19932;-73
2023/01/17 14:38:28;;;;;;;;;;;;;;;4.36;45.35;95013.91;5027616;28;19925;-73
2023/01/17 14:40:57;;;;;;;;;;;;;;;4.31;44.31;95014.16;5046725;28;19955;-77
2023/01/17 14:43:25;;;;;;;;;;;;;;;4.25;45.97;95004.78;5050710;28;19946;-77
2023/01/17 14:45:56;;;;;;;;;;;;;;;4.26;45.46;95009.03;5047519;28;19936;-72
2023/01/17 14:48:24;;;;;;;;;;;;;;;4.19;45.73;95006.91;5051194;28;19986;-71
2023/01/17 14:53:53;;;;;;;;;;;;;;;4.30;45.12;95008.00;5052417;28;19925;-71
2023/01/17 14:56:25;;;;;;;;;;;;;;;4.18;45.71;95000.75;5022819;28;19961;-71
2023/01/17 14:59:06;;;;;;;;;;;;;;;4.24;46.24;95001.31;5051988;28;20002;-71
2023/01/17 15:01:35;;;;;;;;;;;;;;;4.28;46.31;95006.78;5050779;28;19939;-71
2023/01/17 15:04:03;;;;;;;;;;;;;;;4.33;45.91;95003.88;5052922;28;20398;-71
2023/01/17 15:06:33;;;;;;;;;;;;;;;4.25;46.84;95004.78;5033743;28;19960;-71
2023/01/17 15:09:02;;;;;;;;;;;;;;;4.22;46.23;95000.09;5045132;28;19940;-71
2023/01/17 15:11:31;;;;;;;;;;;;;;;4.18;46.03;94995.38;5047226;28;19935;-75
2023/01/17 15:13:59;;;;;;;;;;;;;;;4.26;46.71;94993.69;5045899;28;19943;-75
2023/01/17 15:16:29;;;;;;;;;;;;;;;4.36;45.23;94997.78;5048483;28;19969;-71
2023/01/17 15:18:58;;;;;;;;;;;;;;;4.32;45.82;94994.25;5013574;28;20010;-72
2023/01/17 15:21:51;;;;;;;;;;;;;;;4.21;45.44;94988.56;5039855;28;20076;-71
2023/01/17 15:24:21;;;;;;;;;;;;;;;4.12;46.61;94986.00;5044872;28;19970;-72
2023/01/17 15:26:52;;;;;;;;;;;;;;;4.08;46.19;94992.41;5049031;28;19936;-73
2023/01/17 15:29:22;;;;;;;;;;;;;;;3.93;45.92;94991.97;5055624;28;19939;-73
2023/01/17 15:31:51;;;;;;;;;;;;;;;3.92;46.30;95000.38;5052627;28;19942;-73
2023/01/17 15:34:25;;;;;;;;;;;;;;;3.89;46.40;94988.44;5029728;28;19987;-73